HAZ1603 ZUUU-ZULS
Flight info
| Callsign | HAZ1603 |
|---|---|
| Flight time | 2h 25m |
| Altitude | 34100 |
| Route | MUMGO9W MUMGO B213 IGELA W522 IGDAG IGD10A |
| Aircraft | A319/M-SDE3FGHIRWY/LB1 |
Departure
| Time | 2026-05-04 05:45 |
|---|---|
| Airport | Chengdu Shuangliu International Airport (ZUUU) |
Arrival
| Time | 2026-05-04 08:10 |
|---|---|
| Airport | Lhasa Gonggar International Airport (ZULS) |
| Time | Latitude | Longitude | Altitude | Speed | Heading |
|---|---|---|---|---|---|
| 2026-05-04 05:21 | 30.56253 | 103.94888 | 1689 ft | 0 kts | 201° |
| 2026-05-04 05:34 | 30.56254 | 103.94889 | 1689 ft | 1 kts | 201° |
| 2026-05-04 05:35 | 30.56263 | 103.94894 | 1689 ft | 2 kts | 201° |
| 2026-05-04 05:35 | 30.56277 | 103.94900 | 1689 ft | 2 kts | 201° |
| 2026-05-04 05:35 | 30.56296 | 103.94908 | 1689 ft | 2 kts | 201° |
| 2026-05-04 05:35 | 30.56305 | 103.94913 | 1689 ft | 2 kts | 197° |
| 2026-05-04 05:36 | 30.56315 | 103.94914 | 1689 ft | 2 kts | 178° |
| 2026-05-04 05:36 | 30.56335 | 103.94909 | 1689 ft | 2 kts | 152° |
| 2026-05-04 05:36 | 30.56343 | 103.94903 | 1689 ft | 2 kts | 139° |
| 2026-05-04 05:36 | 30.56353 | 103.94890 | 1689 ft | 2 kts | 119° |
| 2026-05-04 05:37 | 30.56357 | 103.94879 | 1689 ft | 1 kts | 111° |
| 2026-05-04 05:37 | 30.56357 | 103.94878 | 1689 ft | 0 kts | 111° |
| 2026-05-04 05:39 | 30.56356 | 103.94884 | 1689 ft | 2 kts | 111° |
| 2026-05-04 05:39 | 30.56314 | 103.94997 | 1689 ft | 11 kts | 114° |
| 2026-05-04 05:39 | 30.56270 | 103.95125 | 1689 ft | 14 kts | 112° |
| 2026-05-04 05:40 | 30.56133 | 103.95273 | 1689 ft | 16 kts | 198° |
| 2026-05-04 05:40 | 30.56022 | 103.95224 | 1689 ft | 18 kts | 202° |
| 2026-05-04 05:40 | 30.55901 | 103.95168 | 1689 ft | 18 kts | 202° |
| 2026-05-04 05:41 | 30.55819 | 103.95130 | 1689 ft | 18 kts | 202° |
| 2026-05-04 05:41 | 30.55655 | 103.95053 | 1689 ft | 19 kts | 201° |
| 2026-05-04 05:41 | 30.55525 | 103.94992 | 1689 ft | 20 kts | 201° |
| 2026-05-04 05:41 | 30.55394 | 103.94933 | 1689 ft | 20 kts | 203° |
| 2026-05-04 05:42 | 30.55265 | 103.94872 | 1689 ft | 19 kts | 201° |
| 2026-05-04 05:42 | 30.55137 | 103.94813 | 1689 ft | 19 kts | 202° |
| 2026-05-04 05:42 | 30.55030 | 103.94837 | 1689 ft | 18 kts | 114° |
| 2026-05-04 05:42 | 30.54983 | 103.94973 | 1689 ft | 18 kts | 112° |
| 2026-05-04 05:43 | 30.54890 | 103.95035 | 1689 ft | 17 kts | 204° |
| 2026-05-04 05:43 | 30.54865 | 103.95023 | 1689 ft | 0 kts | 202° |
| 2026-05-04 05:43 | 30.54770 | 103.94978 | 1689 ft | 46 kts | 201° |
| 2026-05-04 05:45 | 30.46830 | 103.92489 | 3676 ft | 234 kts | 189° |
| 2026-05-04 05:45 | 30.44573 | 103.92239 | 4287 ft | 255 kts | 182° |
| 2026-05-04 05:47 | 30.32213 | 103.91356 | 8871 ft | 277 kts | 159° |
| 2026-05-04 05:47 | 30.30608 | 103.92567 | 9494 ft | 283 kts | 135° |
| 2026-05-04 05:47 | 30.29273 | 103.95208 | 10303 ft | 293 kts | 114° |
| 2026-05-04 05:48 | 30.28774 | 103.96688 | 10608 ft | 301 kts | 113° |
| 2026-05-04 05:48 | 30.27718 | 103.99807 | 11037 ft | 324 kts | 112° |
| 2026-05-04 05:48 | 30.27284 | 104.01506 | 11239 ft | 337 kts | 100° |
| 2026-05-04 05:48 | 30.27521 | 104.05203 | 11650 ft | 360 kts | 71° |
| 2026-05-04 05:49 | 30.28234 | 104.06951 | 11853 ft | 370 kts | 57° |
| 2026-05-04 05:49 | 30.30038 | 104.09139 | 12277 ft | 379 kts | 34° |
| 2026-05-04 05:49 | 30.33178 | 104.10913 | 13131 ft | 380 kts | 22° |
| 2026-05-04 05:49 | 30.34807 | 104.11720 | 13529 ft | 380 kts | 22° |
| 2026-05-04 05:51 | 30.51169 | 104.07712 | 17609 ft | 392 kts | 297° |
| 2026-05-04 05:51 | 30.52445 | 104.04890 | 18149 ft | 394 kts | 297° |
| 2026-05-04 05:52 | 30.53730 | 104.02082 | 18689 ft | 397 kts | 297° |
| 2026-05-04 05:52 | 30.54601 | 104.00201 | 19048 ft | 399 kts | 297° |
| 2026-05-04 05:52 | 30.56315 | 103.96388 | 19764 ft | 400 kts | 295° |
| 2026-05-04 05:52 | 30.57458 | 103.93409 | 20297 ft | 402 kts | 291° |
| 2026-05-04 05:53 | 30.58130 | 103.91386 | 20657 ft | 403 kts | 289° |
| 2026-05-04 05:54 | 30.64239 | 103.69638 | 24202 ft | 406 kts | 287° |
| 2026-05-04 05:55 | 30.65294 | 103.65456 | 24812 ft | 407 kts | 286° |
| 2026-05-04 05:55 | 30.65817 | 103.63314 | 25121 ft | 407 kts | 286° |
| 2026-05-04 05:55 | 30.66838 | 103.59107 | 25695 ft | 408 kts | 286° |
| 2026-05-04 05:55 | 30.67353 | 103.56980 | 25974 ft | 409 kts | 286° |
| 2026-05-04 05:56 | 30.68386 | 103.52715 | 26533 ft | 411 kts | 286° |
| 2026-05-04 05:56 | 30.68905 | 103.50571 | 26802 ft | 412 kts | 286° |
| 2026-05-04 05:56 | 30.69674 | 103.47384 | 27183 ft | 413 kts | 286° |
| 2026-05-04 05:56 | 30.70710 | 103.43092 | 27675 ft | 416 kts | 286° |
| 2026-05-04 05:57 | 30.71488 | 103.39866 | 28063 ft | 416 kts | 286° |
| 2026-05-04 05:57 | 30.72012 | 103.37687 | 28357 ft | 415 kts | 286° |
| 2026-05-04 05:57 | 30.72785 | 103.34473 | 28836 ft | 413 kts | 286° |
| 2026-05-04 05:57 | 30.73554 | 103.31271 | 29360 ft | 411 kts | 286° |
| 2026-05-04 05:58 | 30.74319 | 103.28085 | 29880 ft | 408 kts | 286° |
| 2026-05-04 05:58 | 30.75087 | 103.24881 | 30403 ft | 406 kts | 286° |
| 2026-05-04 05:58 | 30.76086 | 103.20704 | 31066 ft | 403 kts | 286° |
| 2026-05-04 05:58 | 30.76840 | 103.17546 | 31542 ft | 402 kts | 286° |
| 2026-05-04 05:59 | 30.77331 | 103.15493 | 31808 ft | 402 kts | 286° |
| 2026-05-04 05:59 | 30.78088 | 103.12319 | 32133 ft | 403 kts | 286° |
| 2026-05-04 05:59 | 30.78805 | 103.09141 | 32421 ft | 405 kts | 284° |
| 2026-05-04 05:59 | 30.79397 | 103.05900 | 32675 ft | 406 kts | 282° |
| 2026-05-04 06:00 | 30.80178 | 102.99329 | 32700 ft | 407 kts | 277° |
| 2026-05-04 06:00 | 30.80411 | 102.92708 | 32679 ft | 408 kts | 273° |
| 2026-05-04 06:01 | 30.80317 | 102.86049 | 32653 ft | 408 kts | 272° |
| 2026-05-04 06:03 | 30.79847 | 102.59858 | 32675 ft | 408 kts | 272° |
| 2026-05-04 06:05 | 30.79221 | 102.30180 | 32651 ft | 407 kts | 272° |
| 2026-05-04 06:06 | 30.79074 | 102.23633 | 32654 ft | 407 kts | 272° |
| 2026-05-04 06:06 | 30.78899 | 102.15959 | 32677 ft | 407 kts | 272° |
| 2026-05-04 06:07 | 30.78746 | 102.09428 | 32720 ft | 407 kts | 272° |
| 2026-05-04 06:07 | 30.78589 | 102.02881 | 32787 ft | 406 kts | 272° |
| 2026-05-04 06:08 | 30.78454 | 101.97388 | 32848 ft | 406 kts | 272° |
| 2026-05-04 06:08 | 30.78421 | 101.89803 | 32820 ft | 403 kts | 277° |
| 2026-05-04 06:09 | 30.78869 | 101.83350 | 32754 ft | 401 kts | 279° |
| 2026-05-04 06:11 | 30.80901 | 101.58678 | 32638 ft | 400 kts | 279° |
| 2026-05-04 06:13 | 30.82982 | 101.32916 | 32637 ft | 401 kts | 279° |
| 2026-05-04 06:14 | 30.84845 | 101.09278 | 32623 ft | 401 kts | 279° |
| 2026-05-04 06:15 | 30.85262 | 101.03905 | 32624 ft | 401 kts | 279° |
| 2026-05-04 06:15 | 30.85760 | 100.97465 | 32628 ft | 401 kts | 279° |
| 2026-05-04 06:16 | 30.86336 | 100.89952 | 32607 ft | 400 kts | 279° |
| 2026-05-04 06:16 | 30.86747 | 100.84575 | 32604 ft | 400 kts | 279° |
| 2026-05-04 06:17 | 30.87233 | 100.78155 | 32627 ft | 400 kts | 279° |
| 2026-05-04 06:17 | 30.87796 | 100.70657 | 32642 ft | 399 kts | 279° |
| 2026-05-04 06:18 | 30.88196 | 100.65292 | 32642 ft | 399 kts | 279° |
| 2026-05-04 06:20 | 30.90082 | 100.39603 | 32641 ft | 399 kts | 279° |
| 2026-05-04 06:21 | 30.91237 | 100.23521 | 32642 ft | 400 kts | 278° |
| 2026-05-04 06:22 | 30.91769 | 100.16026 | 32642 ft | 400 kts | 278° |
| 2026-05-04 06:25 | 30.95176 | 99.71089 | 32633 ft | 399 kts | 279° |
| 2026-05-04 06:26 | 30.95594 | 99.65700 | 32632 ft | 399 kts | 279° |
| 2026-05-04 06:26 | 30.96173 | 99.58210 | 32634 ft | 399 kts | 279° |
| 2026-05-04 06:27 | 30.97396 | 99.42165 | 32632 ft | 400 kts | 279° |
| 2026-05-04 06:28 | 30.97802 | 99.36771 | 32625 ft | 400 kts | 279° |
| 2026-05-04 06:28 | 30.98365 | 99.29255 | 32623 ft | 400 kts | 278° |
| 2026-05-04 06:29 | 30.98768 | 99.23859 | 32627 ft | 401 kts | 278° |
| 2026-05-04 06:29 | 30.99323 | 99.16345 | 32625 ft | 401 kts | 278° |
| 2026-05-04 06:30 | 30.99798 | 99.09877 | 32620 ft | 401 kts | 278° |
| 2026-05-04 06:30 | 31.00191 | 99.04482 | 32619 ft | 401 kts | 278° |
| 2026-05-04 06:31 | 31.00659 | 98.98024 | 32623 ft | 401 kts | 278° |
| 2026-05-04 06:31 | 31.01124 | 98.91555 | 32619 ft | 401 kts | 278° |
| 2026-05-04 06:33 | 31.02956 | 98.65646 | 32638 ft | 401 kts | 278° |
| 2026-05-04 06:34 | 31.03489 | 98.59188 | 32618 ft | 402 kts | 279° |
| 2026-05-04 06:34 | 31.04037 | 98.52716 | 32606 ft | 402 kts | 279° |
| 2026-05-04 06:36 | 31.06254 | 98.25726 | 32581 ft | 403 kts | 278° |
| 2026-05-04 06:37 | 31.06774 | 98.19272 | 32575 ft | 403 kts | 278° |
| 2026-05-04 06:37 | 31.07209 | 98.13839 | 32573 ft | 403 kts | 278° |
| 2026-05-04 06:38 | 31.07730 | 98.07356 | 32575 ft | 403 kts | 278° |
| 2026-05-04 06:40 | 31.09810 | 97.81376 | 32568 ft | 405 kts | 278° |
| 2026-05-04 06:40 | 31.10320 | 97.74878 | 32565 ft | 405 kts | 278° |
| 2026-05-04 06:41 | 31.10831 | 97.68327 | 32563 ft | 406 kts | 278° |
| 2026-05-04 06:41 | 31.11340 | 97.61764 | 32561 ft | 406 kts | 278° |
| 2026-05-04 06:42 | 31.11841 | 97.55265 | 32559 ft | 406 kts | 278° |
| 2026-05-04 06:44 | 31.13821 | 97.29100 | 32548 ft | 406 kts | 277° |
| 2026-05-04 06:44 | 31.14000 | 97.21355 | 32547 ft | 409 kts | 272° |
| 2026-05-04 06:45 | 31.13675 | 97.15856 | 32546 ft | 411 kts | 268° |
| 2026-05-04 06:45 | 31.12784 | 97.09276 | 32544 ft | 414 kts | 263° |
| 2026-05-04 06:46 | 31.11438 | 97.02725 | 32542 ft | 415 kts | 261° |
| 2026-05-04 06:46 | 31.09821 | 96.95140 | 32541 ft | 416 kts | 261° |
| 2026-05-04 06:48 | 31.04423 | 96.70092 | 32576 ft | 416 kts | 261° |
| 2026-05-04 06:50 | 30.98735 | 96.43986 | 32570 ft | 417 kts | 260° |
| 2026-05-04 06:51 | 30.97329 | 96.37441 | 32571 ft | 417 kts | 261° |
| 2026-05-04 06:51 | 30.95945 | 96.30887 | 32572 ft | 418 kts | 260° |
| 2026-05-04 06:52 | 30.94555 | 96.24340 | 32569 ft | 417 kts | 260° |
| 2026-05-04 06:52 | 30.92938 | 96.16738 | 32571 ft | 417 kts | 260° |
| 2026-05-04 06:53 | 30.91774 | 96.11279 | 32573 ft | 417 kts | 260° |
| 2026-05-04 06:53 | 30.90144 | 96.03646 | 32577 ft | 418 kts | 259° |
| 2026-05-04 06:54 | 30.88973 | 95.98183 | 32579 ft | 418 kts | 259° |
| 2026-05-04 06:54 | 30.87569 | 95.91644 | 32578 ft | 418 kts | 259° |
| 2026-05-04 06:55 | 30.86153 | 95.85060 | 32573 ft | 418 kts | 259° |
| 2026-05-04 06:55 | 30.84739 | 95.78497 | 32569 ft | 419 kts | 259° |
| 2026-05-04 06:57 | 30.79255 | 95.52224 | 32572 ft | 419 kts | 260° |
| 2026-05-04 06:58 | 30.77893 | 95.45656 | 32576 ft | 419 kts | 260° |
| 2026-05-04 06:58 | 30.76532 | 95.39116 | 32584 ft | 419 kts | 260° |
| 2026-05-04 06:59 | 30.75158 | 95.32530 | 32596 ft | 419 kts | 259° |
| 2026-05-04 06:59 | 30.73777 | 95.25924 | 32605 ft | 419 kts | 259° |
| 2026-05-04 07:01 | 30.68240 | 94.99631 | 32612 ft | 419 kts | 259° |
| 2026-05-04 07:02 | 30.66847 | 94.93059 | 32614 ft | 419 kts | 259° |
| 2026-05-04 07:02 | 30.65211 | 94.85375 | 32615 ft | 420 kts | 259° |
| 2026-05-04 07:03 | 30.64046 | 94.79914 | 32616 ft | 420 kts | 259° |
| 2026-05-04 07:03 | 30.62638 | 94.73328 | 32619 ft | 420 kts | 259° |
| 2026-05-04 07:04 | 30.61002 | 94.65692 | 32612 ft | 420 kts | 259° |
| 2026-05-04 07:04 | 30.59823 | 94.60204 | 32603 ft | 420 kts | 259° |
| 2026-05-04 07:05 | 30.58173 | 94.52537 | 32587 ft | 420 kts | 259° |
| 2026-05-04 07:05 | 30.56755 | 94.45979 | 32586 ft | 420 kts | 258° |
| 2026-05-04 07:06 | 30.54634 | 94.36166 | 32615 ft | 421 kts | 258° |
| 2026-05-04 07:07 | 30.53444 | 94.30685 | 32647 ft | 421 kts | 258° |
| 2026-05-04 07:09 | 30.47862 | 94.04430 | 32598 ft | 419 kts | 259° |
| 2026-05-04 07:09 | 30.46279 | 93.96798 | 32587 ft | 419 kts | 259° |
| 2026-05-04 07:10 | 30.45149 | 93.91351 | 32585 ft | 420 kts | 258° |
| 2026-05-04 07:12 | 30.39674 | 93.65303 | 34379 ft | 404 kts | 258° |
| 2026-05-04 07:12 | 30.38995 | 93.62168 | 34724 ft | 407 kts | 257° |
| 2026-05-04 07:12 | 30.37895 | 93.57957 | 34759 ft | 414 kts | 253° |
| 2026-05-04 07:13 | 30.36288 | 93.52730 | 34467 ft | 411 kts | 253° |
| 2026-05-04 07:13 | 30.35325 | 93.49616 | 34147 ft | 410 kts | 253° |
| 2026-05-04 07:13 | 30.34388 | 93.46563 | 33964 ft | 409 kts | 253° |
| 2026-05-04 07:14 | 30.30549 | 93.34174 | 34555 ft | 411 kts | 253° |
| 2026-05-04 07:14 | 30.29266 | 93.30033 | 34846 ft | 412 kts | 253° |
| 2026-05-04 07:15 | 30.28612 | 93.27933 | 35004 ft | 412 kts | 253° |
| 2026-05-04 07:15 | 30.27647 | 93.24824 | 35210 ft | 412 kts | 253° |
| 2026-05-04 07:15 | 30.25724 | 93.18637 | 35320 ft | 410 kts | 253° |
| 2026-05-04 07:16 | 30.23800 | 93.12475 | 35236 ft | 408 kts | 253° |
| 2026-05-04 07:16 | 30.22846 | 93.09413 | 35120 ft | 407 kts | 252° |
| 2026-05-04 07:16 | 30.21890 | 93.06359 | 35011 ft | 407 kts | 252° |
| 2026-05-04 07:17 | 30.20916 | 93.03267 | 34906 ft | 407 kts | 253° |
| 2026-05-04 07:17 | 30.19960 | 93.00204 | 34806 ft | 407 kts | 252° |
| 2026-05-04 07:17 | 30.18030 | 92.94054 | 34713 ft | 408 kts | 252° |
| 2026-05-04 07:18 | 30.16095 | 92.87894 | 34656 ft | 409 kts | 252° |
| 2026-05-04 07:18 | 30.14144 | 92.81705 | 34526 ft | 410 kts | 252° |
| 2026-05-04 07:19 | 30.12205 | 92.75527 | 34320 ft | 411 kts | 252° |
| 2026-05-04 07:19 | 30.10247 | 92.69351 | 34188 ft | 412 kts | 252° |
| 2026-05-04 07:20 | 30.07933 | 92.63300 | 34184 ft | 415 kts | 245° |
| 2026-05-04 07:20 | 30.04848 | 92.57615 | 34204 ft | 419 kts | 238° |
| 2026-05-04 07:22 | 29.90234 | 92.41269 | 32675 ft | 417 kts | 226° |
| 2026-05-04 07:22 | 29.87315 | 92.38316 | 32316 ft | 419 kts | 226° |
| 2026-05-04 07:23 | 29.85847 | 92.36837 | 32143 ft | 420 kts | 226° |
| 2026-05-04 07:23 | 29.83654 | 92.34634 | 31902 ft | 422 kts | 225° |
| 2026-05-04 07:23 | 29.81437 | 92.32410 | 31662 ft | 423 kts | 226° |
| 2026-05-04 07:23 | 29.79227 | 92.30184 | 31421 ft | 425 kts | 225° |
| 2026-05-04 07:24 | 29.76997 | 92.27933 | 31179 ft | 427 kts | 225° |
| 2026-05-04 07:24 | 29.74759 | 92.25684 | 30936 ft | 428 kts | 225° |
| 2026-05-04 07:24 | 29.71766 | 92.22675 | 30613 ft | 432 kts | 225° |
| 2026-05-04 07:24 | 29.70250 | 92.21151 | 30451 ft | 433 kts | 224° |
| 2026-05-04 07:25 | 29.67982 | 92.18874 | 30208 ft | 435 kts | 224° |
| 2026-05-04 07:26 | 29.50997 | 92.01897 | 27576 ft | 444 kts | 223° |
| 2026-05-04 07:27 | 29.49442 | 92.00345 | 27127 ft | 443 kts | 223° |
| 2026-05-04 07:27 | 29.46362 | 91.97276 | 26312 ft | 435 kts | 223° |
| 2026-05-04 07:27 | 29.44856 | 91.95776 | 25945 ft | 432 kts | 223° |
| 2026-05-04 07:27 | 29.42603 | 91.93529 | 25354 ft | 427 kts | 223° |
| 2026-05-04 07:28 | 29.40378 | 91.91315 | 24818 ft | 419 kts | 223° |
| 2026-05-04 07:28 | 29.38229 | 91.89176 | 24572 ft | 402 kts | 223° |
| 2026-05-04 07:28 | 29.36148 | 91.87104 | 24336 ft | 385 kts | 223° |
| 2026-05-04 07:28 | 29.34202 | 91.85165 | 24133 ft | 363 kts | 223° |
| 2026-05-04 07:29 | 29.32346 | 91.83322 | 23970 ft | 344 kts | 223° |
| 2026-05-04 07:29 | 29.30576 | 91.81565 | 23885 ft | 329 kts | 223° |
| 2026-05-04 07:29 | 29.28892 | 91.79894 | 23791 ft | 317 kts | 223° |
| 2026-05-04 07:29 | 29.27281 | 91.78241 | 23687 ft | 305 kts | 229° |
| 2026-05-04 07:30 | 29.26146 | 91.76240 | 23575 ft | 291 kts | 249° |
| 2026-05-04 07:30 | 29.25680 | 91.74031 | 23330 ft | 288 kts | 266° |
| 2026-05-04 07:30 | 29.25744 | 91.71735 | 23023 ft | 288 kts | 272° |
| 2026-05-04 07:30 | 29.25890 | 91.69489 | 22713 ft | 287 kts | 272° |
| 2026-05-04 07:31 | 29.26033 | 91.67199 | 22391 ft | 285 kts | 272° |
| 2026-05-04 07:31 | 29.26167 | 91.64956 | 22064 ft | 283 kts | 272° |
| 2026-05-04 07:33 | 29.27070 | 91.49706 | 19961 ft | 266 kts | 274° |
| 2026-05-04 07:33 | 29.27470 | 91.46905 | 19605 ft | 267 kts | 283° |
| 2026-05-04 07:33 | 29.27830 | 91.45544 | 19458 ft | 268 kts | 288° |
| 2026-05-04 07:33 | 29.28484 | 91.43563 | 19242 ft | 268 kts | 289° |
| 2026-05-04 07:34 | 29.29164 | 91.41585 | 19022 ft | 268 kts | 290° |
| 2026-05-04 07:34 | 29.29852 | 91.39589 | 18817 ft | 269 kts | 289° |
| 2026-05-04 07:34 | 29.30349 | 91.37524 | 18616 ft | 268 kts | 277° |
| 2026-05-04 07:34 | 29.30475 | 91.35416 | 18447 ft | 268 kts | 269° |
| 2026-05-04 07:35 | 29.30447 | 91.33265 | 18256 ft | 269 kts | 267° |
| 2026-05-04 07:35 | 29.30401 | 91.31148 | 18054 ft | 269 kts | 268° |
| 2026-05-04 07:35 | 29.30360 | 91.28999 | 17861 ft | 270 kts | 268° |
| 2026-05-04 07:35 | 29.30326 | 91.26847 | 17735 ft | 270 kts | 268° |
| 2026-05-04 07:36 | 29.30297 | 91.24710 | 17740 ft | 271 kts | 268° |
| 2026-05-04 07:36 | 29.30267 | 91.22539 | 17743 ft | 271 kts | 268° |
| 2026-05-04 07:38 | 29.30055 | 91.07400 | 17732 ft | 272 kts | 268° |
| 2026-05-04 07:38 | 29.30023 | 91.05214 | 17730 ft | 272 kts | 268° |
| 2026-05-04 07:38 | 29.29991 | 91.03059 | 17729 ft | 272 kts | 268° |
| 2026-05-04 07:38 | 29.29951 | 91.00894 | 17712 ft | 273 kts | 268° |
| 2026-05-04 07:39 | 29.29912 | 90.98707 | 17350 ft | 276 kts | 268° |
| 2026-05-04 07:39 | 29.29881 | 90.96516 | 16871 ft | 274 kts | 268° |
| 2026-05-04 07:39 | 29.29850 | 90.94383 | 16406 ft | 265 kts | 268° |
| 2026-05-04 07:39 | 29.29818 | 90.92314 | 16118 ft | 252 kts | 268° |
| 2026-05-04 07:40 | 29.29790 | 90.90376 | 16371 ft | 245 kts | 268° |
| 2026-05-04 07:40 | 29.29762 | 90.88429 | 16726 ft | 245 kts | 268° |
| 2026-05-04 07:40 | 29.29734 | 90.86464 | 17090 ft | 250 kts | 268° |
| 2026-05-04 07:40 | 29.29985 | 90.84475 | 17441 ft | 259 kts | 292° |
| 2026-05-04 07:41 | 29.31017 | 90.82788 | 17819 ft | 265 kts | 315° |
| 2026-05-04 07:41 | 29.32425 | 90.81393 | 18197 ft | 271 kts | 320° |
| 2026-05-04 07:41 | 29.33921 | 90.80065 | 18657 ft | 274 kts | 321° |
| 2026-05-04 07:41 | 29.35448 | 90.78751 | 19136 ft | 275 kts | 321° |
| 2026-05-04 07:42 | 29.36985 | 90.77445 | 19614 ft | 278 kts | 321° |
| 2026-05-04 07:42 | 29.38602 | 90.76185 | 20085 ft | 283 kts | 334° |
| 2026-05-04 07:42 | 29.40500 | 90.75588 | 20445 ft | 292 kts | 355° |
| 2026-05-04 07:42 | 29.42559 | 90.75844 | 20567 ft | 306 kts | 16° |
| 2026-05-04 07:43 | 29.44590 | 90.76674 | 20586 ft | 309 kts | 21° |
| 2026-05-04 07:43 | 29.46570 | 90.77653 | 20599 ft | 309 kts | 28° |
| 2026-05-04 07:43 | 29.48231 | 90.79199 | 20600 ft | 309 kts | 53° |
| 2026-05-04 07:43 | 29.49407 | 90.81254 | 20600 ft | 308 kts | 61° |
| 2026-05-04 07:44 | 29.50370 | 90.83446 | 20560 ft | 308 kts | 72° |
| 2026-05-04 07:44 | 29.50923 | 90.85808 | 20499 ft | 307 kts | 79° |
| 2026-05-04 07:44 | 29.51350 | 90.88210 | 20444 ft | 307 kts | 81° |
| 2026-05-04 07:44 | 29.51744 | 90.90586 | 20398 ft | 307 kts | 81° |
| 2026-05-04 07:45 | 29.52143 | 90.93018 | 20355 ft | 307 kts | 80° |
| 2026-05-04 07:45 | 29.52795 | 90.95335 | 20305 ft | 309 kts | 59° |
| 2026-05-04 07:45 | 29.54064 | 90.97337 | 20286 ft | 309 kts | 50° |
| 2026-05-04 07:45 | 29.55477 | 90.99200 | 20264 ft | 309 kts | 48° |
| 2026-05-04 07:46 | 29.56902 | 91.01017 | 20262 ft | 309 kts | 48° |
| 2026-05-04 07:46 | 29.58353 | 91.02853 | 20283 ft | 309 kts | 47° |
| 2026-05-04 07:46 | 29.59798 | 91.04681 | 20311 ft | 309 kts | 47° |
| 2026-05-04 07:46 | 29.61238 | 91.06502 | 20339 ft | 309 kts | 49° |
| 2026-05-04 07:47 | 29.62417 | 91.08550 | 20363 ft | 308 kts | 65° |
| 2026-05-04 07:47 | 29.63112 | 91.10872 | 20390 ft | 306 kts | 78° |
| 2026-05-04 07:47 | 29.63600 | 91.13267 | 20410 ft | 302 kts | 78° |
| 2026-05-04 07:49 | 29.66901 | 91.29096 | 20436 ft | 289 kts | 84° |
| 2026-05-04 07:49 | 29.66903 | 91.31413 | 20415 ft | 287 kts | 99° |
| 2026-05-04 07:49 | 29.66582 | 91.33672 | 20394 ft | 286 kts | 103° |
| 2026-05-04 07:50 | 29.66196 | 91.35905 | 20373 ft | 286 kts | 103° |
| 2026-05-04 07:50 | 29.65792 | 91.38158 | 20353 ft | 286 kts | 103° |
| 2026-05-04 07:50 | 29.65392 | 91.40375 | 20334 ft | 285 kts | 103° |
| 2026-05-04 07:50 | 29.64985 | 91.42622 | 20315 ft | 286 kts | 103° |
| 2026-05-04 07:51 | 29.64578 | 91.44856 | 20297 ft | 286 kts | 103° |
| 2026-05-04 07:51 | 29.64165 | 91.47117 | 20279 ft | 286 kts | 103° |
| 2026-05-04 07:51 | 29.63757 | 91.49358 | 20261 ft | 286 kts | 103° |
| 2026-05-04 07:51 | 29.63337 | 91.51566 | 20259 ft | 285 kts | 109° |
| 2026-05-04 07:52 | 29.62392 | 91.53487 | 20192 ft | 274 kts | 140° |
| 2026-05-04 07:52 | 29.60738 | 91.54486 | 19988 ft | 262 kts | 172° |
| 2026-05-04 07:52 | 29.58980 | 91.54487 | 19861 ft | 249 kts | 195° |
| 2026-05-04 07:52 | 29.57461 | 91.53671 | 19697 ft | 239 kts | 221° |
| 2026-05-04 07:53 | 29.56442 | 91.52179 | 19428 ft | 236 kts | 245° |
| 2026-05-04 07:54 | 29.47051 | 91.47305 | 18903 ft | 240 kts | 156° |
| 2026-05-04 07:55 | 29.45380 | 91.48076 | 18656 ft | 275 kts | 166° |
| 2026-05-04 07:55 | 29.43512 | 91.48546 | 19079 ft | 273 kts | 163° |
| 2026-05-04 07:55 | 29.41730 | 91.49228 | 19491 ft | 271 kts | 160° |
| 2026-05-04 07:55 | 29.39970 | 91.50008 | 19394 ft | 274 kts | 159° |
| 2026-05-04 07:56 | 29.38202 | 91.50830 | 19065 ft | 273 kts | 159° |
| 2026-05-04 07:56 | 29.36459 | 91.51649 | 18906 ft | 265 kts | 159° |
| 2026-05-04 07:56 | 29.34761 | 91.52335 | 18733 ft | 255 kts | 173° |
| 2026-05-04 07:56 | 29.33025 | 91.52348 | 18573 ft | 242 kts | 184° |
| 2026-05-04 07:57 | 29.31357 | 91.52238 | 18286 ft | 232 kts | 184° |
| 2026-05-04 07:57 | 29.29777 | 91.52129 | 17925 ft | 224 kts | 183° |
| 2026-05-04 07:57 | 29.28279 | 91.51836 | 17561 ft | 217 kts | 205° |
| 2026-05-04 07:57 | 29.27200 | 91.50757 | 17446 ft | 198 kts | 239° |
| 2026-05-04 07:58 | 29.26854 | 91.49274 | 17474 ft | 192 kts | 268° |
| 2026-05-04 07:58 | 29.26951 | 91.47797 | 17471 ft | 180 kts | 275° |
| 2026-05-04 07:58 | 29.27222 | 91.46420 | 17476 ft | 178 kts | 288° |
| 2026-05-04 07:58 | 29.27665 | 91.45096 | 17505 ft | 177 kts | 291° |
| 2026-05-04 07:59 | 29.28122 | 91.43803 | 17526 ft | 177 kts | 288° |
| 2026-05-04 07:59 | 29.28514 | 91.42460 | 17548 ft | 177 kts | 286° |
| 2026-05-04 07:59 | 29.28877 | 91.41119 | 17557 ft | 177 kts | 286° |
| 2026-05-04 07:59 | 29.29265 | 91.39775 | 17569 ft | 177 kts | 288° |
| 2026-05-04 08:00 | 29.29670 | 91.38437 | 17585 ft | 177 kts | 288° |
| 2026-05-04 08:00 | 29.30036 | 91.37106 | 17601 ft | 176 kts | 282° |
| 2026-05-04 08:00 | 29.30244 | 91.35734 | 17620 ft | 176 kts | 274° |
| 2026-05-04 08:02 | 29.30399 | 91.25983 | 17043 ft | 174 kts | 267° |
| 2026-05-04 08:02 | 29.30372 | 91.24612 | 16826 ft | 173 kts | 268° |
| 2026-05-04 08:02 | 29.30344 | 91.23231 | 16604 ft | 173 kts | 267° |
| 2026-05-04 08:03 | 29.30316 | 91.21846 | 16386 ft | 173 kts | 266° |
| 2026-05-04 08:03 | 29.30287 | 91.20486 | 16163 ft | 172 kts | 266° |
| 2026-05-04 08:03 | 29.30257 | 91.19108 | 15949 ft | 172 kts | 266° |
| 2026-05-04 08:03 | 29.30229 | 91.17754 | 15736 ft | 171 kts | 266° |
| 2026-05-04 08:04 | 29.30204 | 91.16396 | 15519 ft | 170 kts | 266° |
| 2026-05-04 08:04 | 29.30175 | 91.15053 | 15306 ft | 170 kts | 266° |
| 2026-05-04 08:04 | 29.30148 | 91.13708 | 15094 ft | 169 kts | 266° |
| 2026-05-04 08:04 | 29.30124 | 91.12351 | 14882 ft | 168 kts | 266° |
| 2026-05-04 08:05 | 29.30102 | 91.11018 | 14674 ft | 167 kts | 267° |
| 2026-05-04 08:05 | 29.30082 | 91.09688 | 14469 ft | 166 kts | 266° |
| 2026-05-04 08:05 | 29.30063 | 91.08374 | 14263 ft | 165 kts | 266° |
| 2026-05-04 08:05 | 29.30043 | 91.07069 | 14058 ft | 164 kts | 266° |
| 2026-05-04 08:06 | 29.30025 | 91.05781 | 13851 ft | 163 kts | 266° |
| 2026-05-04 08:06 | 29.30005 | 91.04481 | 13641 ft | 162 kts | 266° |
| 2026-05-04 08:06 | 29.29985 | 91.03209 | 13436 ft | 161 kts | 266° |
| 2026-05-04 08:06 | 29.29966 | 91.01919 | 13230 ft | 161 kts | 266° |
| 2026-05-04 08:08 | 29.29831 | 90.92877 | 11881 ft | 162 kts | 267° |
| 2026-05-04 08:08 | 29.29811 | 90.91674 | 11876 ft | 132 kts | 268° |
| 2026-05-04 08:10 | 29.29623 | 90.89735 | 11887 ft | 16 kts | 269° |
| 2026-05-04 08:11 | 29.29603 | 90.89614 | 11887 ft | 15 kts | 221° |
| 2026-05-04 08:11 | 29.29409 | 90.89578 | 11889 ft | 8 kts | 179° |
| 2026-05-04 08:11 | 29.29391 | 90.89578 | 11889 ft | 0 kts | 181° |